sensor_id;sensor_type;location;lat;lon;timestamp;P1;durP1;ratioP1;P2;durP2;ratioP2
74180;SDS011;62544;50.826;14.354;2023-02-13T00:00:32;44.04;;;17.77;;
74180;SDS011;62544;50.826;14.354;2023-02-13T00:04:48;44.04;;;17.77;;
74180;SDS011;62544;50.826;14.354;2023-02-13T00:09:04;44.04;;;17.77;;
74180;SDS011;62544;50.826;14.354;2023-02-13T00:13:20;44.04;;;17.77;;
74180;SDS011;62544;50.826;14.354;2023-02-13T00:17:36;44.04;;;17.77;;
74180;SDS011;62544;50.826;14.354;2023-02-13T00:21:52;44.04;;;17.77;;
74180;SDS011;62544;50.826;14.354;2023-02-13T00:26:09;44.04;;;17.77;;
74180;SDS011;62544;50.826;14.354;2023-02-13T00:30:24;44.04;;;17.77;;
74180;SDS011;62544;50.826;14.354;2023-02-13T00:34:40;44.04;;;17.77;;
74180;SDS011;62544;50.826;14.354;2023-02-13T00:38:56;44.04;;;17.77;;
74180;SDS011;62544;50.826;14.354;2023-02-13T00:43:12;44.04;;;17.77;;
74180;SDS011;62544;50.826;14.354;2023-02-13T00:47:28;44.04;;;17.77;;
74180;SDS011;62544;50.826;14.354;2023-02-13T00:51:44;44.04;;;17.77;;
74180;SDS011;62544;50.826;14.354;2023-02-13T00:56:00;44.04;;;17.77;;
74180;SDS011;62544;50.826;14.354;2023-02-13T01:00:16;44.04;;;17.77;;
74180;SDS011;62544;50.826;14.354;2023-02-13T01:04:32;44.04;;;17.77;;
74180;SDS011;62544;50.826;14.354;2023-02-13T01:08:48;44.04;;;17.77;;
74180;SDS011;62544;50.826;14.354;2023-02-13T01:13:04;38.80;;;17.28;;
74180;SDS011;62544;50.826;14.354;2023-02-13T01:17:20;38.80;;;17.28;;
74180;SDS011;62544;50.826;14.354;2023-02-13T01:21:36;43.99;;;17.98;;
74180;SDS011;62544;50.826;14.354;2023-02-13T01:25:52;43.99;;;17.98;;
74180;SDS011;62544;50.826;14.354;2023-02-13T01:30:09;43.99;;;17.98;;
74180;SDS011;62544;50.826;14.354;2023-02-13T01:34:24;43.99;;;17.98;;
74180;SDS011;62544;50.826;14.354;2023-02-13T01:38:40;43.99;;;17.98;;
74180;SDS011;62544;50.826;14.354;2023-02-13T01:42:56;40.88;;;17.01;;
74180;SDS011;62544;50.826;14.354;2023-02-13T01:47:13;40.88;;;17.01;;
74180;SDS011;62544;50.826;14.354;2023-02-13T01:51:29;38.04;;;15.50;;
74180;SDS011;62544;50.826;14.354;2023-02-13T01:55:46;38.04;;;15.50;;
74180;SDS011;62544;50.826;14.354;2023-02-13T02:00:02;56.14;;;21.39;;
74180;SDS011;62544;50.826;14.354;2023-02-13T02:04:18;56.14;;;21.39;;
74180;SDS011;62544;50.826;14.354;2023-02-13T02:08:32;56.14;;;21.39;;
74180;SDS011;62544;50.826;14.354;2023-02-13T02:13:02;47.80;;;19.62;;
74180;SDS011;62544;50.826;14.354;2023-02-13T02:17:04;47.80;;;19.62;;
74180;SDS011;62544;50.826;14.354;2023-02-13T02:21:42;42.46;;;17.75;;
74180;SDS011;62544;50.826;14.354;2023-02-13T02:25:44;42.46;;;17.75;;
74180;SDS011;62544;50.826;14.354;2023-02-13T02:38:41;37.67;;;15.63;;
74180;SDS011;62544;50.826;14.354;2023-02-13T02:42:56;37.40;;;15.36;;
74180;SDS011;62544;50.826;14.354;2023-02-13T02:47:00;37.40;;;15.36;;
74180;SDS011;62544;50.826;14.354;2023-02-13T02:51:20;32.19;;;13.70;;
74180;SDS011;62544;50.826;14.354;2023-02-13T02:55:34;32.19;;;13.70;;
74180;SDS011;62544;50.826;14.354;2023-02-13T02:59:44;32.19;;;13.70;;
74180;SDS011;62544;50.826;14.354;2023-02-13T03:04:00;24.72;;;11.36;;
74180;SDS011;62544;50.826;14.354;2023-02-13T03:08:16;24.72;;;11.36;;
74180;SDS011;62544;50.826;14.354;2023-02-13T03:12:35;34.14;;;13.08;;
74180;SDS011;62544;50.826;14.354;2023-02-13T03:16:48;34.14;;;13.08;;
74180;SDS011;62544;50.826;14.354;2023-02-13T03:21:08;29.16;;;10.89;;
74180;SDS011;62544;50.826;14.354;2023-02-13T03:25:21;29.16;;;10.89;;
74180;SDS011;62544;50.826;14.354;2023-02-13T03:33:56;30.48;;;11.46;;
74180;SDS011;62544;50.826;14.354;2023-02-13T03:38:13;30.48;;;11.46;;
74180;SDS011;62544;50.826;14.354;2023-02-13T03:42:29;30.48;;;11.46;;
74180;SDS011;62544;50.826;14.354;2023-02-13T03:46:41;30.48;;;11.46;;
74180;SDS011;62544;50.826;14.354;2023-02-13T03:50:57;21.46;;;9.25;;
74180;SDS011;62544;50.826;14.354;2023-02-13T03:55:13;21.46;;;9.25;;
74180;SDS011;62544;50.826;14.354;2023-02-13T03:59:29;21.46;;;9.25;;
74180;SDS011;62544;50.826;14.354;2023-02-13T04:03:45;21.74;;;9.09;;
74180;SDS011;62544;50.826;14.354;2023-02-13T04:08:00;21.74;;;9.09;;
74180;SDS011;62544;50.826;14.354;2023-02-13T04:12:17;20.80;;;8.97;;
74180;SDS011;62544;50.826;14.354;2023-02-13T04:16:37;20.80;;;8.97;;
74180;SDS011;62544;50.826;14.354;2023-02-13T04:20:48;26.96;;;10.94;;
74180;SDS011;62544;50.826;14.354;2023-02-13T04:25:04;26.96;;;10.94;;
74180;SDS011;62544;50.826;14.354;2023-02-13T04:29:21;26.96;;;10.94;;
74180;SDS011;62544;50.826;14.354;2023-02-13T04:33:36;28.82;;;11.74;;
74180;SDS011;62544;50.826;14.354;2023-02-13T04:37:52;28.82;;;11.74;;
74180;SDS011;62544;50.826;14.354;2023-02-13T04:42:08;23.25;;;10.53;;
74180;SDS011;62544;50.826;14.354;2023-02-13T04:46:24;23.25;;;10.53;;
74180;SDS011;62544;50.826;14.354;2023-02-13T04:50:40;23.25;;;10.53;;
74180;SDS011;62544;50.826;14.354;2023-02-13T04:54:56;23.25;;;10.53;;
74180;SDS011;62544;50.826;14.354;2023-02-13T04:59:12;23.25;;;10.53;;
74180;SDS011;62544;50.826;14.354;2023-02-13T05:03:28;23.25;;;10.53;;
74180;SDS011;62544;50.826;14.354;2023-02-13T05:07:44;23.25;;;10.53;;
74180;SDS011;62544;50.826;14.354;2023-02-13T05:12:01;23.25;;;10.53;;
74180;SDS011;62544;50.826;14.354;2023-02-13T05:16:17;23.25;;;10.53;;
74180;SDS011;62544;50.826;14.354;2023-02-13T05:20:33;23.25;;;10.53;;
74180;SDS011;62544;50.826;14.354;2023-02-13T05:24:49;23.25;;;10.53;;
74180;SDS011;62544;50.826;14.354;2023-02-13T05:29:05;23.25;;;10.53;;
74180;SDS011;62544;50.826;14.354;2023-02-13T05:33:21;101.30;;;16.70;;
74180;SDS011;62544;50.826;14.354;2023-02-13T05:37:37;101.30;;;16.70;;
74180;SDS011;62544;50.826;14.354;2023-02-13T05:41:53;30.87;;;12.32;;
74180;SDS011;62544;50.826;14.354;2023-02-13T05:46:09;30.87;;;12.32;;
74180;SDS011;62544;50.826;14.354;2023-02-13T05:50:25;34.68;;;13.19;;
74180;SDS011;62544;50.826;14.354;2023-02-13T05:54:41;34.68;;;13.19;;
74180;SDS011;62544;50.826;14.354;2023-02-13T05:58:57;34.68;;;13.19;;
74180;SDS011;62544;50.826;14.354;2023-02-13T06:03:13;40.27;;;13.77;;
74180;SDS011;62544;50.826;14.354;2023-02-13T06:07:29;40.27;;;13.77;;
74180;SDS011;62544;50.826;14.354;2023-02-13T06:11:46;61.80;;;18.29;;
74180;SDS011;62544;50.826;14.354;2023-02-13T06:16:02;61.80;;;18.29;;
74180;SDS011;62544;50.826;14.354;2023-02-13T06:20:18;56.16;;;16.69;;
74180;SDS011;62544;50.826;14.354;2023-02-13T06:24:34;56.16;;;16.69;;
74180;SDS011;62544;50.826;14.354;2023-02-13T06:28:50;56.16;;;16.69;;
74180;SDS011;62544;50.826;14.354;2023-02-13T06:33:06;63.63;;;18.40;;
74180;SDS011;62544;50.826;14.354;2023-02-13T06:37:22;63.63;;;18.40;;
74180;SDS011;62544;50.826;14.354;2023-02-13T06:41:37;60.53;;;18.28;;
74180;SDS011;62544;50.826;14.354;2023-02-13T06:45:53;60.53;;;18.28;;
74180;SDS011;62544;50.826;14.354;2023-02-13T06:50:10;60.53;;;18.28;;
74180;SDS011;62544;50.826;14.354;2023-02-13T06:54:25;60.53;;;18.28;;
74180;SDS011;62544;50.826;14.354;2023-02-13T06:58:41;60.53;;;18.28;;
74180;SDS011;62544;50.826;14.354;2023-02-13T07:03:01;49.52;;;16.57;;
74180;SDS011;62544;50.826;14.354;2023-02-13T07:07:13;49.52;;;16.57;;
74180;SDS011;62544;50.826;14.354;2023-02-13T07:11:29;49.52;;;16.57;;
74180;SDS011;62544;50.826;14.354;2023-02-13T07:15:45;49.52;;;16.57;;
74180;SDS011;62544;50.826;14.354;2023-02-13T07:20:02;49.52;;;16.57;;
74180;SDS011;62544;50.826;14.354;2023-02-13T07:24:17;49.52;;;16.57;;
74180;SDS011;62544;50.826;14.354;2023-02-13T07:28:34;49.52;;;16.57;;
74180;SDS011;62544;50.826;14.354;2023-02-13T07:32:49;49.52;;;16.57;;
74180;SDS011;62544;50.826;14.354;2023-02-13T07:37:05;49.52;;;16.57;;
74180;SDS011;62544;50.826;14.354;2023-02-13T07:41:21;41.04;;;17.02;;
74180;SDS011;62544;50.826;14.354;2023-02-13T07:45:37;41.04;;;17.02;;
74180;SDS011;62544;50.826;14.354;2023-02-13T07:49:53;41.04;;;17.02;;
74180;SDS011;62544;50.826;14.354;2023-02-13T07:54:09;41.04;;;17.02;;
74180;SDS011;62544;50.826;14.354;2023-02-13T07:58:25;41.04;;;17.02;;
74180;SDS011;62544;50.826;14.354;2023-02-13T08:02:41;49.57;;;22.70;;
74180;SDS011;62544;50.826;14.354;2023-02-13T08:06:57;49.57;;;22.70;;
74180;SDS011;62544;50.826;14.354;2023-02-13T08:11:32;49.57;;;22.70;;
74180;SDS011;62544;50.826;14.354;2023-02-13T08:15:29;49.57;;;22.70;;
74180;SDS011;62544;50.826;14.354;2023-02-13T08:19:45;49.57;;;22.70;;
74180;SDS011;62544;50.826;14.354;2023-02-13T08:24:01;49.57;;;22.70;;
74180;SDS011;62544;50.826;14.354;2023-02-13T08:28:17;49.57;;;22.70;;
74180;SDS011;62544;50.826;14.354;2023-02-13T08:32:33;49.57;;;22.70;;
74180;SDS011;62544;50.826;14.354;2023-02-13T08:36:49;49.57;;;22.70;;
74180;SDS011;62544;50.826;14.354;2023-02-13T08:41:05;49.57;;;22.70;;
74180;SDS011;62544;50.826;14.354;2023-02-13T08:45:21;49.57;;;22.70;;
74180;SDS011;62544;50.826;14.354;2023-02-13T08:49:37;49.57;;;22.70;;
74180;SDS011;62544;50.826;14.354;2023-02-13T08:53:53;49.57;;;22.70;;
74180;SDS011;62544;50.826;14.354;2023-02-13T08:58:09;49.57;;;22.70;;
74180;SDS011;62544;50.826;14.354;2023-02-13T09:02:25;49.57;;;22.70;;
74180;SDS011;62544;50.826;14.354;2023-02-13T09:06:41;49.57;;;22.70;;
74180;SDS011;62544;50.826;14.354;2023-02-13T09:10:58;49.57;;;22.70;;
74180;SDS011;62544;50.826;14.354;2023-02-13T09:15:13;49.57;;;22.70;;
74180;SDS011;62544;50.826;14.354;2023-02-13T09:19:29;49.57;;;22.70;;
74180;SDS011;62544;50.826;14.354;2023-02-13T09:23:45;49.57;;;22.70;;
74180;SDS011;62544;50.826;14.354;2023-02-13T09:28:01;49.57;;;22.70;;
74180;SDS011;62544;50.826;14.354;2023-02-13T09:32:17;26.12;;;14.72;;
74180;SDS011;62544;50.826;14.354;2023-02-13T09:36:33;26.12;;;14.72;;
74180;SDS011;62544;50.826;14.354;2023-02-13T09:40:53;26.12;;;14.72;;
74180;SDS011;62544;50.826;14.354;2023-02-13T09:45:06;26.12;;;14.72;;
74180;SDS011;62544;50.826;14.354;2023-02-13T09:49:21;26.12;;;14.72;;
74180;SDS011;62544;50.826;14.354;2023-02-13T09:53:37;26.12;;;14.72;;
74180;SDS011;62544;50.826;14.354;2023-02-13T09:58:11;26.12;;;14.72;;
74180;SDS011;62544;50.826;14.354;2023-02-13T10:06:30;26.12;;;14.72;;
74180;SDS011;62544;50.826;14.354;2023-02-13T10:19:15;18.25;;;9.77;;
74180;SDS011;62544;50.826;14.354;2023-02-13T10:23:37;17.68;;;9.71;;
74180;SDS011;62544;50.826;14.354;2023-02-13T10:27:46;17.68;;;9.71;;
74180;SDS011;62544;50.826;14.354;2023-02-13T10:32:02;19.87;;;10.50;;
74180;SDS011;62544;50.826;14.354;2023-02-13T10:36:18;19.87;;;10.50;;
74180;SDS011;62544;50.826;14.354;2023-02-13T10:40:36;17.30;;;9.13;;
74180;SDS011;62544;50.826;14.354;2023-02-13T10:44:53;17.30;;;9.13;;
74180;SDS011;62544;50.826;14.354;2023-02-13T10:53:23;17.86;;;10.84;;
74180;SDS011;62544;50.826;14.354;2023-02-13T11:06:11;18.05;;;10.58;;
74180;SDS011;62544;50.826;14.354;2023-02-13T11:10:25;21.69;;;11.86;;
74180;SDS011;62544;50.826;14.354;2023-02-13T11:14:46;21.69;;;11.86;;
74180;SDS011;62544;50.826;14.354;2023-02-13T11:18:57;21.69;;;11.86;;
74180;SDS011;62544;50.826;14.354;2023-02-13T11:23:21;22.26;;;14.37;;
74180;SDS011;62544;50.826;14.354;2023-02-13T11:27:31;22.26;;;14.37;;
74180;SDS011;62544;50.826;14.354;2023-02-13T11:31:45;20.87;;;12.42;;
74180;SDS011;62544;50.826;14.354;2023-02-13T11:36:08;20.87;;;12.42;;
74180;SDS011;62544;50.826;14.354;2023-02-13T11:40:27;21.71;;;12.73;;
74180;SDS011;62544;50.826;14.354;2023-02-13T11:44:33;21.71;;;12.73;;
74180;SDS011;62544;50.826;14.354;2023-02-13T11:49:04;21.71;;;12.73;;
74180;SDS011;62544;50.826;14.354;2023-02-13T11:53:16;14.56;;;8.94;;
74180;SDS011;62544;50.826;14.354;2023-02-13T12:01:37;12.54;;;8.12;;
74180;SDS011;62544;50.826;14.354;2023-02-13T12:06:03;12.54;;;8.12;;
74180;SDS011;62544;50.826;14.354;2023-02-13T12:10:22;13.45;;;8.83;;
74180;SDS011;62544;50.826;14.354;2023-02-13T12:14:26;13.45;;;8.83;;
74180;SDS011;62544;50.826;14.354;2023-02-13T12:18:45;13.45;;;8.83;;
74180;SDS011;62544;50.826;14.354;2023-02-13T12:23:02;10.79;;;7.00;;
74180;SDS011;62544;50.826;14.354;2023-02-13T12:27:31;10.79;;;7.00;;
74180;SDS011;62544;50.826;14.354;2023-02-13T12:31:38;12.20;;;8.08;;
74180;SDS011;62544;50.826;14.354;2023-02-13T12:35:51;12.20;;;8.08;;
74180;SDS011;62544;50.826;14.354;2023-02-13T12:48:34;12.80;;;8.24;;
74180;SDS011;62544;50.826;14.354;2023-02-13T13:10:02;11.64;;;7.49;;
74180;SDS011;62544;50.826;14.354;2023-02-13T13:18:35;11.64;;;7.49;;
74180;SDS011;62544;50.826;14.354;2023-02-13T13:22:45;13.02;;;7.65;;
74180;SDS011;62544;50.826;14.354;2023-02-13T13:26:57;13.02;;;7.65;;
74180;SDS011;62544;50.826;14.354;2023-02-13T13:31:13;13.33;;;9.06;;
74180;SDS011;62544;50.826;14.354;2023-02-13T13:35:29;13.33;;;9.06;;
74180;SDS011;62544;50.826;14.354;2023-02-13T13:44:23;11.63;;;7.97;;
74180;SDS011;62544;50.826;14.354;2023-02-13T13:52:34;13.56;;;8.37;;
74180;SDS011;62544;50.826;14.354;2023-02-13T14:05:25;10.84;;;7.43;;
74180;SDS011;62544;50.826;14.354;2023-02-13T14:09:39;10.84;;;7.43;;
74180;SDS011;62544;50.826;14.354;2023-02-13T14:13:53;11.54;;;7.53;;
74180;SDS011;62544;50.826;14.354;2023-02-13T14:22:26;9.92;;;7.05;;
74180;SDS011;62544;50.826;14.354;2023-02-13T14:26:41;9.92;;;7.05;;
74180;SDS011;62544;50.826;14.354;2023-02-13T14:31:03;11.63;;;8.06;;
74180;SDS011;62544;50.826;14.354;2023-02-13T14:35:15;11.63;;;8.06;;
74180;SDS011;62544;50.826;14.354;2023-02-13T14:39:30;11.63;;;8.06;;
74180;SDS011;62544;50.826;14.354;2023-02-13T14:43:46;11.03;;;8.16;;
74180;SDS011;62544;50.826;14.354;2023-02-13T14:48:04;11.03;;;8.16;;
74180;SDS011;62544;50.826;14.354;2023-02-13T14:52:18;8.77;;;6.77;;
74180;SDS011;62544;50.826;14.354;2023-02-13T14:56:33;8.77;;;6.77;;
74180;SDS011;62544;50.826;14.354;2023-02-13T15:00:53;11.91;;;8.33;;
74180;SDS011;62544;50.826;14.354;2023-02-13T15:05:06;11.91;;;8.33;;
74180;SDS011;62544;50.826;14.354;2023-02-13T15:09:25;11.91;;;8.33;;
74180;SDS011;62544;50.826;14.354;2023-02-13T15:13:37;11.05;;;8.26;;
74180;SDS011;62544;50.826;14.354;2023-02-13T15:17:54;11.05;;;8.26;;
74180;SDS011;62544;50.826;14.354;2023-02-13T15:22:14;16.55;;;12.58;;
74180;SDS011;62544;50.826;14.354;2023-02-13T15:26:25;16.55;;;12.58;;
74180;SDS011;62544;50.826;14.354;2023-02-13T15:30:50;13.04;;;9.97;;
74180;SDS011;62544;50.826;14.354;2023-02-13T15:34:57;13.04;;;9.97;;
74180;SDS011;62544;50.826;14.354;2023-02-13T15:39:17;13.04;;;9.97;;
74180;SDS011;62544;50.826;14.354;2023-02-13T15:43:33;16.15;;;12.58;;
74180;SDS011;62544;50.826;14.354;2023-02-13T15:47:45;16.15;;;12.58;;
74180;SDS011;62544;50.826;14.354;2023-02-13T15:52:03;12.39;;;9.17;;
74180;SDS011;62544;50.826;14.354;2023-02-13T15:56:17;12.39;;;9.17;;
74180;SDS011;62544;50.826;14.354;2023-02-13T16:00:34;12.93;;;9.36;;
74180;SDS011;62544;50.826;14.354;2023-02-13T16:04:50;12.93;;;9.36;;
74180;SDS011;62544;50.826;14.354;2023-02-13T16:09:05;12.93;;;9.36;;
74180;SDS011;62544;50.826;14.354;2023-02-13T16:13:21;18.89;;;13.36;;
74180;SDS011;62544;50.826;14.354;2023-02-13T16:17:37;18.89;;;13.36;;
74180;SDS011;62544;50.826;14.354;2023-02-13T16:21:53;15.20;;;10.03;;
74180;SDS011;62544;50.826;14.354;2023-02-13T16:26:11;15.20;;;10.03;;
74180;SDS011;62544;50.826;14.354;2023-02-13T16:30:35;15.20;;;10.03;;
74180;SDS011;62544;50.826;14.354;2023-02-13T16:34:41;15.20;;;10.03;;
74180;SDS011;62544;50.826;14.354;2023-02-13T16:38:57;15.20;;;10.03;;
74180;SDS011;62544;50.826;14.354;2023-02-13T16:47:29;15.20;;;10.03;;
74180;SDS011;62544;50.826;14.354;2023-02-13T16:51:53;15.20;;;10.03;;
74180;SDS011;62544;50.826;14.354;2023-02-13T16:56:02;15.20;;;10.03;;
74180;SDS011;62544;50.826;14.354;2023-02-13T17:00:18;15.20;;;10.03;;
74180;SDS011;62544;50.826;14.354;2023-02-13T17:04:33;15.20;;;10.03;;
74180;SDS011;62544;50.826;14.354;2023-02-13T17:08:51;15.20;;;10.03;;
74180;SDS011;62544;50.826;14.354;2023-02-13T17:13:13;15.20;;;10.03;;
74180;SDS011;62544;50.826;14.354;2023-02-13T17:17:21;15.20;;;10.03;;
74180;SDS011;62544;50.826;14.354;2023-02-13T17:21:37;15.20;;;10.03;;
74180;SDS011;62544;50.826;14.354;2023-02-13T17:25:53;15.20;;;10.03;;
74180;SDS011;62544;50.826;14.354;2023-02-13T17:30:16;15.20;;;10.03;;
74180;SDS011;62544;50.826;14.354;2023-02-13T17:34:25;15.20;;;10.03;;
74180;SDS011;62544;50.826;14.354;2023-02-13T17:38:41;15.20;;;10.03;;
74180;SDS011;62544;50.826;14.354;2023-02-13T17:42:58;15.20;;;10.03;;
74180;SDS011;62544;50.826;14.354;2023-02-13T17:47:13;15.20;;;10.03;;
74180;SDS011;62544;50.826;14.354;2023-02-13T17:51:29;15.20;;;10.03;;
74180;SDS011;62544;50.826;14.354;2023-02-13T17:55:45;15.20;;;10.03;;
74180;SDS011;62544;50.826;14.354;2023-02-13T18:00:02;15.20;;;10.03;;
74180;SDS011;62544;50.826;14.354;2023-02-13T18:04:17;15.20;;;10.03;;
74180;SDS011;62544;50.826;14.354;2023-02-13T18:08:34;15.20;;;10.03;;
74180;SDS011;62544;50.826;14.354;2023-02-13T18:12:50;15.20;;;10.03;;
74180;SDS011;62544;50.826;14.354;2023-02-13T18:17:05;15.20;;;10.03;;
74180;SDS011;62544;50.826;14.354;2023-02-13T18:21:21;14.28;;;8.75;;
74180;SDS011;62544;50.826;14.354;2023-02-13T18:25:37;14.28;;;8.75;;
74180;SDS011;62544;50.826;14.354;2023-02-13T18:29:54;14.28;;;8.75;;
74180;SDS011;62544;50.826;14.354;2023-02-13T18:34:09;14.28;;;8.75;;
74180;SDS011;62544;50.826;14.354;2023-02-13T18:38:25;14.28;;;8.75;;
74180;SDS011;62544;50.826;14.354;2023-02-13T18:42:42;14.28;;;8.75;;
74180;SDS011;62544;50.826;14.354;2023-02-13T18:46:58;14.28;;;8.75;;
74180;SDS011;62544;50.826;14.354;2023-02-13T18:51:14;14.28;;;8.75;;
74180;SDS011;62544;50.826;14.354;2023-02-13T18:55:30;14.28;;;8.75;;
74180;SDS011;62544;50.826;14.354;2023-02-13T18:59:47;14.28;;;8.75;;
74180;SDS011;62544;50.826;14.354;2023-02-13T19:04:02;14.28;;;8.75;;
74180;SDS011;62544;50.826;14.354;2023-02-13T19:08:17;14.28;;;8.75;;
74180;SDS011;62544;50.826;14.354;2023-02-13T19:12:33;14.28;;;8.75;;
74180;SDS011;62544;50.826;14.354;2023-02-13T19:16:49;14.28;;;8.75;;
74180;SDS011;62544;50.826;14.354;2023-02-13T19:21:05;14.28;;;8.75;;
74180;SDS011;62544;50.826;14.354;2023-02-13T19:25:21;14.28;;;8.75;;
74180;SDS011;62544;50.826;14.354;2023-02-13T19:29:37;14.28;;;8.75;;
74180;SDS011;62544;50.826;14.354;2023-02-13T19:33:54;14.28;;;8.75;;
74180;SDS011;62544;50.826;14.354;2023-02-13T19:38:09;14.28;;;8.75;;
74180;SDS011;62544;50.826;14.354;2023-02-13T19:42:25;14.28;;;8.75;;
74180;SDS011;62544;50.826;14.354;2023-02-13T19:46:41;14.28;;;8.75;;
74180;SDS011;62544;50.826;14.354;2023-02-13T19:50:57;14.28;;;8.75;;
74180;SDS011;62544;50.826;14.354;2023-02-13T19:55:14;14.28;;;8.75;;
74180;SDS011;62544;50.826;14.354;2023-02-13T19:59:29;14.28;;;8.75;;
74180;SDS011;62544;50.826;14.354;2023-02-13T20:03:45;14.28;;;8.75;;
74180;SDS011;62544;50.826;14.354;2023-02-13T20:08:01;14.28;;;8.75;;
74180;SDS011;62544;50.826;14.354;2023-02-13T20:12:17;14.28;;;8.75;;
74180;SDS011;62544;50.826;14.354;2023-02-13T20:16:33;14.28;;;8.75;;
74180;SDS011;62544;50.826;14.354;2023-02-13T20:20:49;14.28;;;8.75;;
74180;SDS011;62544;50.826;14.354;2023-02-13T20:25:05;14.28;;;8.75;;
74180;SDS011;62544;50.826;14.354;2023-02-13T20:29:21;14.28;;;8.75;;
74180;SDS011;62544;50.826;14.354;2023-02-13T20:33:37;14.28;;;8.75;;
74180;SDS011;62544;50.826;14.354;2023-02-13T20:37:53;14.28;;;8.75;;
74180;SDS011;62544;50.826;14.354;2023-02-13T20:42:09;24.77;;;13.07;;
74180;SDS011;62544;50.826;14.354;2023-02-13T20:46:27;24.77;;;13.07;;
74180;SDS011;62544;50.826;14.354;2023-02-13T20:50:41;24.77;;;13.07;;
74180;SDS011;62544;50.826;14.354;2023-02-13T20:54:57;24.77;;;13.07;;
74180;SDS011;62544;50.826;14.354;2023-02-13T20:59:13;24.77;;;13.07;;
74180;SDS011;62544;50.826;14.354;2023-02-13T21:03:29;24.77;;;13.07;;
74180;SDS011;62544;50.826;14.354;2023-02-13T21:07:45;24.77;;;13.07;;
74180;SDS011;62544;50.826;14.354;2023-02-13T21:12:01;24.77;;;13.07;;
74180;SDS011;62544;50.826;14.354;2023-02-13T21:16:18;24.77;;;13.07;;
74180;SDS011;62544;50.826;14.354;2023-02-13T21:20:34;17.75;;;10.03;;
74180;SDS011;62544;50.826;14.354;2023-02-13T21:24:49;17.75;;;10.03;;
74180;SDS011;62544;50.826;14.354;2023-02-13T21:29:05;17.75;;;10.03;;
74180;SDS011;62544;50.826;14.354;2023-02-13T21:33:21;17.75;;;10.03;;
74180;SDS011;62544;50.826;14.354;2023-02-13T21:37:37;17.75;;;10.03;;
74180;SDS011;62544;50.826;14.354;2023-02-13T21:41:53;17.75;;;10.03;;
74180;SDS011;62544;50.826;14.354;2023-02-13T21:46:13;17.75;;;10.03;;
74180;SDS011;62544;50.826;14.354;2023-02-13T21:50:25;17.75;;;10.03;;
74180;SDS011;62544;50.826;14.354;2023-02-13T21:54:41;17.75;;;10.03;;
74180;SDS011;62544;50.826;14.354;2023-02-13T21:58:57;17.75;;;10.03;;
74180;SDS011;62544;50.826;14.354;2023-02-13T22:03:13;17.75;;;10.03;;
74180;SDS011;62544;50.826;14.354;2023-02-13T22:07:29;17.75;;;10.03;;
74180;SDS011;62544;50.826;14.354;2023-02-13T22:11:45;17.75;;;10.03;;
74180;SDS011;62544;50.826;14.354;2023-02-13T22:16:03;17.75;;;10.03;;
74180;SDS011;62544;50.826;14.354;2023-02-13T22:20:17;17.75;;;10.03;;
74180;SDS011;62544;50.826;14.354;2023-02-13T22:24:33;17.75;;;10.03;;
74180;SDS011;62544;50.826;14.354;2023-02-13T22:28:50;17.75;;;10.03;;
74180;SDS011;62544;50.826;14.354;2023-02-13T22:33:05;21.03;;;11.79;;
74180;SDS011;62544;50.826;14.354;2023-02-13T22:37:21;21.03;;;11.79;;
74180;SDS011;62544;50.826;14.354;2023-02-13T22:41:37;21.03;;;11.79;;
74180;SDS011;62544;50.826;14.354;2023-02-13T22:45:53;21.03;;;11.79;;
74180;SDS011;62544;50.826;14.354;2023-02-13T22:50:09;18.77;;;10.55;;
74180;SDS011;62544;50.826;14.354;2023-02-13T22:54:25;18.77;;;10.55;;
74180;SDS011;62544;50.826;14.354;2023-02-13T22:58:41;18.77;;;10.55;;
74180;SDS011;62544;50.826;14.354;2023-02-13T23:02:57;17.17;;;10.08;;
74180;SDS011;62544;50.826;14.354;2023-02-13T23:07:13;17.17;;;10.08;;
74180;SDS011;62544;50.826;14.354;2023-02-13T23:11:29;20.48;;;11.42;;
74180;SDS011;62544;50.826;14.354;2023-02-13T23:15:45;20.48;;;11.42;;
74180;SDS011;62544;50.826;14.354;2023-02-13T23:20:01;20.48;;;11.42;;
74180;SDS011;62544;50.826;14.354;2023-02-13T23:24:17;20.48;;;11.42;;
74180;SDS011;62544;50.826;14.354;2023-02-13T23:28:33;20.48;;;11.42;;
74180;SDS011;62544;50.826;14.354;2023-02-13T23:32:49;20.48;;;11.42;;
74180;SDS011;62544;50.826;14.354;2023-02-13T23:37:05;20.48;;;11.42;;
74180;SDS011;62544;50.826;14.354;2023-02-13T23:41:21;19.10;;;10.38;;
74180;SDS011;62544;50.826;14.354;2023-02-13T23:45:37;19.10;;;10.38;;
74180;SDS011;62544;50.826;14.354;2023-02-13T23:49:53;21.85;;;10.74;;
74180;SDS011;62544;50.826;14.354;2023-02-13T23:54:12;21.85;;;10.74;;
74180;SDS011;62544;50.826;14.354;2023-02-13T23:58:25;21.85;;;10.74;;
